createdAt,value
2022-11-15T00:01:09.098Z,11
2022-11-15T00:06:13.617Z,11
2022-11-15T00:11:18.136Z,11
2022-11-15T00:16:22.116Z,12
2022-11-15T00:21:26.246Z,12
2022-11-15T00:26:30.736Z,12
2022-11-15T00:31:34.300Z,12
2022-11-15T00:36:38.845Z,13
2022-11-15T00:41:43.355Z,12
2022-11-15T00:46:46.942Z,13
2022-11-15T00:51:51.486Z,12
2022-11-15T00:56:55.981Z,12
2022-11-15T01:01:59.536Z,12
2022-11-15T01:07:04.150Z,12
2022-11-15T01:12:08.633Z,13
2022-11-15T01:17:13.151Z,12
2022-11-15T01:22:16.700Z,12
2022-11-15T01:27:21.251Z,11
2022-11-15T01:32:25.777Z,11
2022-11-15T01:37:29.330Z,12
2022-11-15T01:42:33.855Z,12
2022-11-15T01:47:38.365Z,12
2022-11-15T01:52:41.955Z,11
2022-11-15T01:57:46.459Z,11
2022-11-15T02:02:50.987Z,10
2022-11-15T02:07:54.725Z,10
2022-11-15T02:12:59.083Z,10
2022-11-15T02:18:03.636Z,10
2022-11-15T02:23:08.169Z,9
2022-11-15T02:28:11.694Z,9
2022-11-15T02:33:16.254Z,9
2022-11-15T02:38:20.804Z,8
2022-11-15T02:43:24.331Z,8
2022-11-15T02:48:28.880Z,8
2022-11-15T02:53:33.773Z,8
2022-11-15T02:58:36.938Z,9
2022-11-15T03:03:41.486Z,9
2022-11-15T03:08:46.053Z,9
2022-11-15T03:13:49.554Z,9
2022-11-15T03:18:54.100Z,8
2022-11-15T03:23:58.682Z,9
2022-11-15T03:29:03.149Z,9
2022-11-15T03:34:06.756Z,9
2022-11-15T03:39:13.226Z,9
2022-11-15T03:44:15.781Z,9
2022-11-15T03:49:19.316Z,9
2022-11-15T03:54:22.949Z,9
2022-11-15T03:59:27.418Z,9
2022-11-15T04:04:31.939Z,10
2022-11-15T04:09:36.551Z,9
2022-11-15T04:14:40.053Z,9
2022-11-15T04:19:44.584Z,9
2022-11-15T04:24:49.148Z,9
2022-11-15T04:29:52.688Z,9
2022-11-15T04:34:57.211Z,9
2022-11-15T04:40:01.772Z,9
2022-11-15T04:45:05.324Z,9
2022-11-15T04:50:09.863Z,8
2022-11-15T04:55:14.447Z,8
2022-11-15T05:00:17.955Z,8
2022-11-15T05:05:22.473Z,8
2022-11-15T05:10:27.043Z,7
2022-11-15T05:15:31.580Z,8
2022-11-15T05:20:35.092Z,7
2022-11-15T05:25:39.674Z,6
2022-11-15T05:30:44.156Z,6
2022-11-15T05:35:47.731Z,5
2022-11-15T05:40:52.264Z,5
2022-11-15T05:45:56.779Z,5
2022-11-15T05:51:00.340Z,6
2022-11-15T05:56:04.909Z,5
2022-11-15T06:01:09.454Z,5
2022-11-15T06:06:16.343Z,5
2022-11-15T06:11:17.495Z,4
2022-11-15T06:16:22.013Z,4
2022-11-15T06:21:26.556Z,4
2022-11-15T06:26:30.120Z,4
2022-11-15T06:31:34.653Z,4
2022-11-15T06:36:39.202Z,4
2022-11-15T06:41:42.766Z,4
2022-11-15T06:46:47.270Z,4
2022-11-15T06:51:51.806Z,4
2022-11-15T06:56:55.370Z,4
2022-11-15T07:01:59.860Z,4
2022-11-15T07:07:04.483Z,4
2022-11-15T07:12:08.184Z,3
2022-11-15T07:17:12.483Z,3
2022-11-15T07:22:17.024Z,3
2022-11-15T07:27:21.568Z,3
2022-11-15T07:32:25.133Z,3
2022-11-15T07:37:29.687Z,3
2022-11-15T07:42:34.223Z,3
2022-11-15T07:47:37.761Z,3
2022-11-15T07:52:42.243Z,3
2022-11-15T07:57:46.850Z,3
2022-11-15T08:02:50.474Z,3
2022-11-15T08:07:54.905Z,3
2022-11-15T08:12:58.546Z,3
2022-11-15T08:18:02.947Z,4
2022-11-15T08:23:07.484Z,3
2022-11-15T08:28:11.051Z,3
2022-11-15T08:33:15.568Z,3
2022-11-15T08:38:20.142Z,3
2022-11-15T08:43:23.709Z,3
2022-11-15T08:48:28.198Z,2
2022-11-15T08:53:32.736Z,2
2022-11-15T08:58:36.316Z,2
2022-11-15T09:03:40.807Z,2
2022-11-15T09:08:47.935Z,2
2022-11-15T09:13:49.920Z,2
2022-11-15T09:18:53.459Z,2
2022-11-15T09:23:58.001Z,2
2022-11-15T09:29:02.552Z,1
2022-11-15T09:34:06.067Z,1
2022-11-15T09:39:10.603Z,1
2022-11-15T09:44:15.151Z,1
2022-11-15T09:49:18.668Z,1
2022-11-15T09:54:51.643Z,1
2022-11-15T09:59:27.861Z,1
2022-11-15T10:04:31.271Z,1
2022-11-15T10:09:35.832Z,1
2022-11-15T10:14:40.397Z,1
2022-11-15T10:19:44.908Z,1
2022-11-15T10:24:48.457Z,1
2022-11-15T10:29:52.989Z,1
2022-11-15T10:34:57.495Z,2
2022-11-15T10:40:01.054Z,1
2022-11-15T10:45:05.627Z,1
2022-11-15T10:50:10.149Z,1
2022-11-15T10:55:13.700Z,1
2022-11-15T11:00:18.245Z,1
2022-11-15T11:05:22.785Z,1
2022-11-15T11:10:50.478Z,1
2022-11-15T11:15:30.872Z,1
2022-11-15T11:20:35.381Z,2
2022-11-15T11:25:39.928Z,1
2022-11-15T11:30:43.588Z,2
2022-11-15T11:35:47.994Z,1
2022-11-15T11:40:52.526Z,1
2022-11-15T11:45:56.356Z,1
2022-11-15T11:51:00.607Z,1
2022-11-15T11:56:05.168Z,1
2022-11-15T12:01:12.706Z,1
2022-11-15T12:06:13.241Z,1
2022-11-15T12:11:17.765Z,1
2022-11-15T12:16:21.326Z,1
2022-11-15T12:21:28.700Z,2
2022-11-15T12:26:29.392Z,2
2022-11-15T12:31:33.993Z,2
2022-11-15T12:36:38.485Z,2
2022-11-15T12:41:42.073Z,2
2022-11-15T12:46:46.565Z,2
2022-11-15T12:51:51.076Z,2
2022-11-15T12:56:54.652Z,2
2022-11-15T13:01:59.228Z,2
2022-11-15T13:07:03.750Z,2
2022-11-15T13:12:08.251Z,2
2022-11-15T13:17:11.847Z,2
2022-11-15T13:22:16.303Z,2
2022-11-15T13:27:20.838Z,2
2022-11-15T13:32:24.455Z,2
2022-11-15T13:37:28.943Z,3
2022-11-15T13:42:33.447Z,2
2022-11-15T13:47:37.030Z,2
2022-11-15T13:52:41.551Z,2
2022-11-15T13:57:46.115Z,2
2022-11-15T14:02:49.665Z,2
2022-11-15T14:07:54.174Z,3
2022-11-15T14:12:58.737Z,2
2022-11-15T14:18:03.261Z,2
2022-11-15T14:23:09.889Z,2
2022-11-15T14:28:11.305Z,2
2022-11-15T14:33:15.872Z,3
2022-11-15T14:38:19.422Z,2
2022-11-15T14:43:23.938Z,2
2022-11-15T14:48:28.528Z,2
2022-11-15T14:53:32.019Z,2
2022-11-15T14:58:36.541Z,2
2022-11-15T15:03:41.111Z,2
2022-11-15T15:08:44.625Z,2
2022-11-15T15:13:49.192Z,2
2022-11-15T15:18:53.718Z,3
2022-11-15T15:23:58.242Z,2
2022-11-15T15:29:01.801Z,2
2022-11-15T15:34:06.335Z,2
2022-11-15T15:39:10.846Z,2
2022-11-15T15:44:14.410Z,2
2022-11-15T15:49:18.933Z,2
2022-11-15T15:54:23.503Z,2
2022-11-15T15:59:27.030Z,2
2022-11-15T16:04:31.549Z,2
2022-11-15T16:09:36.063Z,2
2022-11-15T16:14:39.614Z,2
2022-11-15T16:19:44.188Z,2
2022-11-15T16:24:48.711Z,2
2022-11-15T16:29:53.258Z,2
2022-11-15T16:34:56.813Z,2
2022-11-15T16:40:01.312Z,2
2022-11-15T16:45:04.859Z,2
2022-11-15T16:50:09.436Z,2
2022-11-15T16:55:12.958Z,3
2022-11-15T17:00:17.499Z,3
2022-11-15T17:05:22.056Z,4
2022-11-15T17:10:26.554Z,4
2022-11-15T17:15:30.117Z,4
2022-11-15T17:20:34.682Z,4
2022-11-15T17:25:39.153Z,4
2022-11-15T17:30:42.738Z,4
2022-11-15T17:35:47.266Z,4
2022-11-15T17:40:51.780Z,5
2022-11-15T17:45:55.366Z,5
2022-11-15T17:50:59.932Z,5
2022-11-15T17:56:04.423Z,5
2022-11-15T18:01:08.093Z,6
2022-11-15T18:06:12.507Z,6
2022-11-15T18:11:17.047Z,7
2022-11-15T18:16:21.594Z,8
2022-11-15T18:21:25.145Z,8
2022-11-15T18:26:29.703Z,8
2022-11-15T18:31:34.196Z,9
2022-11-15T18:36:38.858Z,10
2022-11-15T18:41:43.408Z,10
2022-11-15T18:46:47.925Z,11
2022-11-15T18:51:51.490Z,12
2022-11-15T18:56:55.991Z,12
2022-11-15T19:02:00.536Z,12
2022-11-15T19:07:04.187Z,13
2022-11-15T19:12:08.628Z,15
2022-11-15T19:17:13.165Z,16
2022-11-15T19:22:17.730Z,16
2022-11-15T19:27:21.220Z,17
2022-11-15T19:32:25.805Z,17
2022-11-15T19:37:30.320Z,16
2022-11-15T19:42:33.831Z,16
2022-11-15T19:47:38.433Z,16
2022-11-15T19:52:42.963Z,16
2022-11-15T19:57:46.484Z,15
2022-11-15T20:02:51.029Z,15
2022-11-15T20:07:55.613Z,14
2022-11-15T20:13:00.204Z,15
2022-11-15T20:18:04.728Z,14
2022-11-15T20:23:09.314Z,15
2022-11-15T20:28:13.828Z,14
2022-11-15T20:33:17.349Z,14
2022-11-15T20:38:21.899Z,13
2022-11-15T20:43:26.455Z,12
2022-11-15T20:48:30.127Z,12
2022-11-15T20:53:34.687Z,11
2022-11-15T20:58:39.200Z,11
2022-11-15T21:03:43.728Z,11
2022-11-15T21:08:48.269Z,10
2022-11-15T21:13:51.796Z,10
2022-11-15T21:18:56.333Z,10
2022-11-15T21:24:00.881Z,9
2022-11-15T21:29:05.544Z,9
2022-11-15T21:34:10.040Z,9
2022-11-15T21:39:14.601Z,9
2022-11-15T21:44:18.129Z,10
2022-11-15T21:49:22.728Z,10
2022-11-15T21:54:27.232Z,9
2022-11-15T21:59:30.729Z,10
2022-11-15T22:04:35.253Z,10
2022-11-15T22:09:39.817Z,10
2022-11-15T22:14:44.365Z,10
2022-11-15T22:19:52.972Z,11
2022-11-15T22:24:52.497Z,10
2022-11-15T22:29:57.001Z,11
2022-11-15T22:35:00.510Z,11
2022-11-15T22:40:05.066Z,11
2022-11-15T22:45:09.612Z,10
2022-11-15T22:50:13.133Z,10
2022-11-15T22:55:17.666Z,10
2022-11-15T23:00:22.191Z,10
2022-11-15T23:05:25.745Z,10
2022-11-15T23:10:30.285Z,9
2022-11-15T23:15:34.800Z,10
2022-11-15T23:20:43.387Z,7
2022-11-15T23:25:42.946Z,4
2022-11-15T23:30:47.495Z,4
2022-11-15T23:35:51.981Z,0
2022-11-15T23:40:55.558Z,0
2022-11-15T23:46:00.138Z,0
2022-11-15T23:51:04.598Z,1
2022-11-15T23:56:08.197Z,0
